sensor_id;sensor_type;location;lat;lon;timestamp;temperature;humidity
11599;DHT22;5855;48.840;9.188;2023-09-18T00:01:15;20.40;99.90
11599;DHT22;5855;48.840;9.188;2023-09-18T00:03:46;20.30;99.90
11599;DHT22;5855;48.840;9.188;2023-09-18T00:06:13;20.30;99.90
11599;DHT22;5855;48.840;9.188;2023-09-18T00:08:40;20.20;99.90
11599;DHT22;5855;48.840;9.188;2023-09-18T00:11:07;20.20;99.90
11599;DHT22;5855;48.840;9.188;2023-09-18T00:13:35;20.20;99.90
11599;DHT22;5855;48.840;9.188;2023-09-18T00:16:02;20.20;99.90
11599;DHT22;5855;48.840;9.188;2023-09-18T00:18:29;20.20;99.90
11599;DHT22;5855;48.840;9.188;2023-09-18T00:20:57;20.20;99.90
11599;DHT22;5855;48.840;9.188;2023-09-18T00:23:24;20.20;99.90
11599;DHT22;5855;48.840;9.188;2023-09-18T00:25:51;20.20;99.90
11599;DHT22;5855;48.840;9.188;2023-09-18T00:28:18;20.10;99.90
11599;DHT22;5855;48.840;9.188;2023-09-18T00:30:48;20.10;99.90
11599;DHT22;5855;48.840;9.188;2023-09-18T00:33:15;20.10;99.90
11599;DHT22;5855;48.840;9.188;2023-09-18T00:35:45;20.10;99.90
11599;DHT22;5855;48.840;9.188;2023-09-18T00:38:14;20.10;99.90
11599;DHT22;5855;48.840;9.188;2023-09-18T00:40:41;20.10;99.90
11599;DHT22;5855;48.840;9.188;2023-09-18T00:43:08;20.10;99.90
11599;DHT22;5855;48.840;9.188;2023-09-18T00:45:39;20.10;99.90
11599;DHT22;5855;48.840;9.188;2023-09-18T00:48:07;20.10;99.90
11599;DHT22;5855;48.840;9.188;2023-09-18T00:50:34;20.10;99.90
11599;DHT22;5855;48.840;9.188;2023-09-18T00:53:01;20.10;99.90
11599;DHT22;5855;48.840;9.188;2023-09-18T00:55:30;20.10;99.90
11599;DHT22;5855;48.840;9.188;2023-09-18T00:57:58;20.00;99.90
11599;DHT22;5855;48.840;9.188;2023-09-18T01:00:25;20.00;99.90
11599;DHT22;5855;48.840;9.188;2023-09-18T01:02:52;20.00;99.90
11599;DHT22;5855;48.840;9.188;2023-09-18T01:05:19;20.00;99.90
11599;DHT22;5855;48.840;9.188;2023-09-18T01:07:46;20.10;99.90
11599;DHT22;5855;48.840;9.188;2023-09-18T01:10:14;20.10;99.90
11599;DHT22;5855;48.840;9.188;2023-09-18T01:12:46;20.10;99.90
11599;DHT22;5855;48.840;9.188;2023-09-18T01:15:18;20.10;99.90
11599;DHT22;5855;48.840;9.188;2023-09-18T01:17:48;20.20;99.90
11599;DHT22;5855;48.840;9.188;2023-09-18T01:20:16;20.20;99.90
11599;DHT22;5855;48.840;9.188;2023-09-18T01:22:44;20.30;99.90
11599;DHT22;5855;48.840;9.188;2023-09-18T01:25:11;20.40;99.90
11599;DHT22;5855;48.840;9.188;2023-09-18T01:27:38;20.40;99.90
11599;DHT22;5855;48.840;9.188;2023-09-18T01:30:06;20.50;99.90
11599;DHT22;5855;48.840;9.188;2023-09-18T01:32:34;20.60;99.90
11599;DHT22;5855;48.840;9.188;2023-09-18T01:35:03;20.60;99.90
11599;DHT22;5855;48.840;9.188;2023-09-18T01:37:33;20.60;99.90
11599;DHT22;5855;48.840;9.188;2023-09-18T01:40:02;20.60;99.90
11599;DHT22;5855;48.840;9.188;2023-09-18T01:42:32;20.60;99.90
11599;DHT22;5855;48.840;9.188;2023-09-18T01:44:59;20.50;99.90
11599;DHT22;5855;48.840;9.188;2023-09-18T01:47:27;20.50;99.90
11599;DHT22;5855;48.840;9.188;2023-09-18T01:49:54;20.60;99.90
11599;DHT22;5855;48.840;9.188;2023-09-18T01:52:21;20.70;99.90
11599;DHT22;5855;48.840;9.188;2023-09-18T01:54:48;21.00;99.90
11599;DHT22;5855;48.840;9.188;2023-09-18T01:57:16;20.90;99.90
11599;DHT22;5855;48.840;9.188;2023-09-18T01:59:43;20.80;99.90
11599;DHT22;5855;48.840;9.188;2023-09-18T02:02:10;20.70;99.90
11599;DHT22;5855;48.840;9.188;2023-09-18T02:04:37;20.70;99.90
11599;DHT22;5855;48.840;9.188;2023-09-18T02:07:05;20.80;99.90
11599;DHT22;5855;48.840;9.188;2023-09-18T02:09:32;21.00;99.90
11599;DHT22;5855;48.840;9.188;2023-09-18T02:11:59;21.20;99.90
11599;DHT22;5855;48.840;9.188;2023-09-18T02:14:27;21.30;99.90
11599;DHT22;5855;48.840;9.188;2023-09-18T02:16:56;21.50;99.90
11599;DHT22;5855;48.840;9.188;2023-09-18T02:19:23;21.50;99.90
11599;DHT22;5855;48.840;9.188;2023-09-18T02:21:51;21.50;99.90
11599;DHT22;5855;48.840;9.188;2023-09-18T02:24:18;21.50;99.90
11599;DHT22;5855;48.840;9.188;2023-09-18T02:26:45;21.40;99.90
11599;DHT22;5855;48.840;9.188;2023-09-18T02:29:12;21.30;99.90
11599;DHT22;5855;48.840;9.188;2023-09-18T02:31:41;21.20;99.90
11599;DHT22;5855;48.840;9.188;2023-09-18T02:34:08;21.10;99.90
11599;DHT22;5855;48.840;9.188;2023-09-18T02:36:35;21.00;99.90
11599;DHT22;5855;48.840;9.188;2023-09-18T02:39:02;20.90;99.90
11599;DHT22;5855;48.840;9.188;2023-09-18T02:41:29;20.80;99.90
11599;DHT22;5855;48.840;9.188;2023-09-18T02:43:56;20.70;99.90
11599;DHT22;5855;48.840;9.188;2023-09-18T02:46:23;20.60;99.90
11599;DHT22;5855;48.840;9.188;2023-09-18T02:48:51;20.50;99.90
11599;DHT22;5855;48.840;9.188;2023-09-18T02:51:18;20.60;99.90
11599;DHT22;5855;48.840;9.188;2023-09-18T02:53:45;20.60;99.90
11599;DHT22;5855;48.840;9.188;2023-09-18T02:56:12;20.60;99.90
11599;DHT22;5855;48.840;9.188;2023-09-18T02:58:39;20.50;99.90
11599;DHT22;5855;48.840;9.188;2023-09-18T03:01:07;20.50;99.90
11599;DHT22;5855;48.840;9.188;2023-09-18T03:03:34;20.50;99.90
11599;DHT22;5855;48.840;9.188;2023-09-18T03:06:03;20.50;99.90
11599;DHT22;5855;48.840;9.188;2023-09-18T03:08:30;20.50;99.90
11599;DHT22;5855;48.840;9.188;2023-09-18T03:10:58;20.50;99.90
11599;DHT22;5855;48.840;9.188;2023-09-18T03:13:26;20.40;99.90
11599;DHT22;5855;48.840;9.188;2023-09-18T03:15:53;20.40;99.90
11599;DHT22;5855;48.840;9.188;2023-09-18T03:18:20;20.40;99.90
11599;DHT22;5855;48.840;9.188;2023-09-18T03:20:47;20.30;99.90
11599;DHT22;5855;48.840;9.188;2023-09-18T03:23:16;20.40;99.90
11599;DHT22;5855;48.840;9.188;2023-09-18T03:25:44;20.30;99.90
11599;DHT22;5855;48.840;9.188;2023-09-18T03:28:11;20.20;99.90
11599;DHT22;5855;48.840;9.188;2023-09-18T03:30:38;20.10;99.90
11599;DHT22;5855;48.840;9.188;2023-09-18T03:33:05;20.10;99.90
11599;DHT22;5855;48.840;9.188;2023-09-18T03:35:32;20.10;99.90
11599;DHT22;5855;48.840;9.188;2023-09-18T03:38:11;20.10;99.90
11599;DHT22;5855;48.840;9.188;2023-09-18T03:40:39;20.10;99.90
11599;DHT22;5855;48.840;9.188;2023-09-18T03:43:06;20.10;99.90
11599;DHT22;5855;48.840;9.188;2023-09-18T03:45:33;20.00;99.90
11599;DHT22;5855;48.840;9.188;2023-09-18T03:48:00;20.00;99.90
11599;DHT22;5855;48.840;9.188;2023-09-18T03:50:27;20.00;99.90
11599;DHT22;5855;48.840;9.188;2023-09-18T03:52:54;20.10;99.90
11599;DHT22;5855;48.840;9.188;2023-09-18T03:55:21;20.20;99.90
11599;DHT22;5855;48.840;9.188;2023-09-18T03:57:49;20.10;99.90
11599;DHT22;5855;48.840;9.188;2023-09-18T04:00:16;20.10;99.90
11599;DHT22;5855;48.840;9.188;2023-09-18T04:02:43;20.10;99.90
11599;DHT22;5855;48.840;9.188;2023-09-18T04:05:10;20.10;99.90
11599;DHT22;5855;48.840;9.188;2023-09-18T04:07:37;20.20;99.90
11599;DHT22;5855;48.840;9.188;2023-09-18T04:10:04;20.20;99.90
11599;DHT22;5855;48.840;9.188;2023-09-18T04:12:31;20.10;99.90
11599;DHT22;5855;48.840;9.188;2023-09-18T04:15:00;20.20;99.90
11599;DHT22;5855;48.840;9.188;2023-09-18T04:17:28;20.20;99.90
11599;DHT22;5855;48.840;9.188;2023-09-18T04:19:55;20.10;99.90
11599;DHT22;5855;48.840;9.188;2023-09-18T04:22:21;20.10;99.90
11599;DHT22;5855;48.840;9.188;2023-09-18T04:24:48;20.00;99.90
11599;DHT22;5855;48.840;9.188;2023-09-18T04:27:15;20.00;99.90
11599;DHT22;5855;48.840;9.188;2023-09-18T04:29:42;20.00;99.90
11599;DHT22;5855;48.840;9.188;2023-09-18T04:32:10;19.90;99.90
11599;DHT22;5855;48.840;9.188;2023-09-18T04:34:37;19.90;99.90
11599;DHT22;5855;48.840;9.188;2023-09-18T04:37:04;19.90;99.90
11599;DHT22;5855;48.840;9.188;2023-09-18T04:39:31;19.90;99.90
11599;DHT22;5855;48.840;9.188;2023-09-18T04:42:01;19.80;99.90
11599;DHT22;5855;48.840;9.188;2023-09-18T04:44:30;19.80;99.90
11599;DHT22;5855;48.840;9.188;2023-09-18T04:46:57;19.70;99.90
11599;DHT22;5855;48.840;9.188;2023-09-18T04:49:26;19.70;99.90
11599;DHT22;5855;48.840;9.188;2023-09-18T04:51:54;19.60;99.90
11599;DHT22;5855;48.840;9.188;2023-09-18T04:54:20;19.60;99.90
11599;DHT22;5855;48.840;9.188;2023-09-18T04:56:47;19.50;99.90
11599;DHT22;5855;48.840;9.188;2023-09-18T04:59:14;19.60;99.90
11599;DHT22;5855;48.840;9.188;2023-09-18T05:01:41;19.60;99.90
11599;DHT22;5855;48.840;9.188;2023-09-18T05:04:09;19.50;99.90
11599;DHT22;5855;48.840;9.188;2023-09-18T05:06:38;19.50;99.90
11599;DHT22;5855;48.840;9.188;2023-09-18T05:09:07;19.60;99.90
11599;DHT22;5855;48.840;9.188;2023-09-18T05:11:34;19.60;99.90
11599;DHT22;5855;48.840;9.188;2023-09-18T05:14:01;19.50;99.90
11599;DHT22;5855;48.840;9.188;2023-09-18T05:16:28;19.50;99.90
11599;DHT22;5855;48.840;9.188;2023-09-18T05:18:55;19.50;99.90
11599;DHT22;5855;48.840;9.188;2023-09-18T05:21:22;19.50;99.90
11599;DHT22;5855;48.840;9.188;2023-09-18T05:23:51;19.50;99.90
11599;DHT22;5855;48.840;9.188;2023-09-18T05:26:19;19.50;99.90
11599;DHT22;5855;48.840;9.188;2023-09-18T05:28:48;19.70;99.90
11599;DHT22;5855;48.840;9.188;2023-09-18T05:31:15;19.80;99.90
11599;DHT22;5855;48.840;9.188;2023-09-18T05:33:42;19.80;99.90
11599;DHT22;5855;48.840;9.188;2023-09-18T05:36:09;19.80;99.90
11599;DHT22;5855;48.840;9.188;2023-09-18T05:38:36;19.70;99.90
11599;DHT22;5855;48.840;9.188;2023-09-18T05:41:04;19.70;99.90
11599;DHT22;5855;48.840;9.188;2023-09-18T05:43:31;19.70;99.90
11599;DHT22;5855;48.840;9.188;2023-09-18T05:45:58;19.70;99.90
11599;DHT22;5855;48.840;9.188;2023-09-18T05:48:25;19.70;99.90
11599;DHT22;5855;48.840;9.188;2023-09-18T05:50:51;19.80;99.90
11599;DHT22;5855;48.840;9.188;2023-09-18T05:53:19;19.90;99.90
11599;DHT22;5855;48.840;9.188;2023-09-18T05:55:47;19.80;99.90
11599;DHT22;5855;48.840;9.188;2023-09-18T05:58:15;20.00;99.90
11599;DHT22;5855;48.840;9.188;2023-09-18T06:00:45;20.00;99.90
11599;DHT22;5855;48.840;9.188;2023-09-18T06:03:12;20.10;99.90
11599;DHT22;5855;48.840;9.188;2023-09-18T06:05:40;20.10;99.90
11599;DHT22;5855;48.840;9.188;2023-09-18T06:08:07;20.10;99.90
11599;DHT22;5855;48.840;9.188;2023-09-18T06:10:34;20.10;99.90
11599;DHT22;5855;48.840;9.188;2023-09-18T06:13:01;20.10;99.90
11599;DHT22;5855;48.840;9.188;2023-09-18T06:15:31;20.10;99.90
11599;DHT22;5855;48.840;9.188;2023-09-18T06:17:58;20.00;99.90
11599;DHT22;5855;48.840;9.188;2023-09-18T06:20:24;20.00;99.90
11599;DHT22;5855;48.840;9.188;2023-09-18T06:22:51;20.00;99.90
11599;DHT22;5855;48.840;9.188;2023-09-18T06:25:19;20.10;99.90
11599;DHT22;5855;48.840;9.188;2023-09-18T06:27:46;20.00;99.90
11599;DHT22;5855;48.840;9.188;2023-09-18T06:30:13;20.00;99.90
11599;DHT22;5855;48.840;9.188;2023-09-18T06:32:41;20.00;99.90
11599;DHT22;5855;48.840;9.188;2023-09-18T06:35:08;20.10;99.90
11599;DHT22;5855;48.840;9.188;2023-09-18T06:37:35;20.20;99.90
11599;DHT22;5855;48.840;9.188;2023-09-18T06:40:02;20.10;99.90
11599;DHT22;5855;48.840;9.188;2023-09-18T06:42:31;20.10;99.90
11599;DHT22;5855;48.840;9.188;2023-09-18T06:44:58;20.20;99.90
11599;DHT22;5855;48.840;9.188;2023-09-18T06:47:27;20.20;99.90
11599;DHT22;5855;48.840;9.188;2023-09-18T06:49:55;20.30;99.90
11599;DHT22;5855;48.840;9.188;2023-09-18T06:52:21;20.30;99.90
11599;DHT22;5855;48.840;9.188;2023-09-18T06:54:49;20.40;99.90
11599;DHT22;5855;48.840;9.188;2023-09-18T06:57:15;20.40;99.90
11599;DHT22;5855;48.840;9.188;2023-09-18T06:59:42;20.40;99.90
11599;DHT22;5855;48.840;9.188;2023-09-18T07:02:10;20.30;99.90
11599;DHT22;5855;48.840;9.188;2023-09-18T07:04:37;20.20;99.90
11599;DHT22;5855;48.840;9.188;2023-09-18T07:07:11;20.20;99.90
11599;DHT22;5855;48.840;9.188;2023-09-18T07:09:39;20.30;99.90
11599;DHT22;5855;48.840;9.188;2023-09-18T07:12:07;20.30;99.90
11599;DHT22;5855;48.840;9.188;2023-09-18T07:14:34;20.40;99.90
11599;DHT22;5855;48.840;9.188;2023-09-18T07:17:01;20.50;99.90
11599;DHT22;5855;48.840;9.188;2023-09-18T07:19:28;20.60;99.90
11599;DHT22;5855;48.840;9.188;2023-09-18T07:21:54;20.60;99.90
11599;DHT22;5855;48.840;9.188;2023-09-18T07:24:24;20.70;99.90
11599;DHT22;5855;48.840;9.188;2023-09-18T07:26:51;20.70;99.90
11599;DHT22;5855;48.840;9.188;2023-09-18T07:29:18;20.70;99.90
11599;DHT22;5855;48.840;9.188;2023-09-18T07:31:46;20.80;99.90
11599;DHT22;5855;48.840;9.188;2023-09-18T07:34:14;20.90;99.90
11599;DHT22;5855;48.840;9.188;2023-09-18T07:36:42;20.90;99.90
11599;DHT22;5855;48.840;9.188;2023-09-18T07:39:10;21.00;99.90
11599;DHT22;5855;48.840;9.188;2023-09-18T07:41:38;21.10;99.90
11599;DHT22;5855;48.840;9.188;2023-09-18T07:44:06;21.20;99.90
11599;DHT22;5855;48.840;9.188;2023-09-18T07:46:32;21.10;99.90
11599;DHT22;5855;48.840;9.188;2023-09-18T07:48:59;21.20;99.90
11599;DHT22;5855;48.840;9.188;2023-09-18T07:51:26;21.40;99.90
11599;DHT22;5855;48.840;9.188;2023-09-18T07:53:53;21.50;99.90
11599;DHT22;5855;48.840;9.188;2023-09-18T07:56:19;21.50;99.90
11599;DHT22;5855;48.840;9.188;2023-09-18T07:58:48;21.40;99.90
11599;DHT22;5855;48.840;9.188;2023-09-18T08:01:15;21.40;99.90
11599;DHT22;5855;48.840;9.188;2023-09-18T08:03:42;21.40;99.90
11599;DHT22;5855;48.840;9.188;2023-09-18T08:06:09;21.50;99.90
11599;DHT22;5855;48.840;9.188;2023-09-18T08:08:37;21.60;99.90
11599;DHT22;5855;48.840;9.188;2023-09-18T08:11:07;21.60;99.90
11599;DHT22;5855;48.840;9.188;2023-09-18T08:13:35;21.80;99.90
11599;DHT22;5855;48.840;9.188;2023-09-18T08:16:05;21.90;99.90
11599;DHT22;5855;48.840;9.188;2023-09-18T08:18:32;22.00;99.90
11599;DHT22;5855;48.840;9.188;2023-09-18T08:21:00;22.10;99.90
11599;DHT22;5855;48.840;9.188;2023-09-18T08:23:27;22.10;99.90
11599;DHT22;5855;48.840;9.188;2023-09-18T08:25:54;22.10;99.90
11599;DHT22;5855;48.840;9.188;2023-09-18T08:28:23;22.10;99.90
11599;DHT22;5855;48.840;9.188;2023-09-18T08:30:49;22.10;99.90
11599;DHT22;5855;48.840;9.188;2023-09-18T08:33:18;22.10;99.90
11599;DHT22;5855;48.840;9.188;2023-09-18T08:35:44;22.10;99.90
11599;DHT22;5855;48.840;9.188;2023-09-18T08:38:12;22.00;99.90
11599;DHT22;5855;48.840;9.188;2023-09-18T08:40:40;21.80;99.90
11599;DHT22;5855;48.840;9.188;2023-09-18T08:43:08;21.70;99.90
11599;DHT22;5855;48.840;9.188;2023-09-18T08:45:37;21.70;99.90
11599;DHT22;5855;48.840;9.188;2023-09-18T08:48:05;21.60;99.90
11599;DHT22;5855;48.840;9.188;2023-09-18T08:50:34;21.30;99.90
11599;DHT22;5855;48.840;9.188;2023-09-18T08:53:02;21.10;99.90
11599;DHT22;5855;48.840;9.188;2023-09-18T08:55:30;21.10;99.90
11599;DHT22;5855;48.840;9.188;2023-09-18T08:57:58;21.00;99.90
11599;DHT22;5855;48.840;9.188;2023-09-18T09:00:26;20.90;99.90
11599;DHT22;5855;48.840;9.188;2023-09-18T09:02:53;20.90;99.90
11599;DHT22;5855;48.840;9.188;2023-09-18T09:05:21;20.90;99.90
11599;DHT22;5855;48.840;9.188;2023-09-18T09:07:50;20.70;99.90
11599;DHT22;5855;48.840;9.188;2023-09-18T09:10:17;20.60;99.90
11599;DHT22;5855;48.840;9.188;2023-09-18T09:13:03;20.40;99.90
11599;DHT22;5855;48.840;9.188;2023-09-18T09:15:34;20.40;99.90
11599;DHT22;5855;48.840;9.188;2023-09-18T09:18:03;20.30;99.90
11599;DHT22;5855;48.840;9.188;2023-09-18T09:20:30;20.20;99.90
11599;DHT22;5855;48.840;9.188;2023-09-18T09:23:01;20.10;99.90
11599;DHT22;5855;48.840;9.188;2023-09-18T09:25:30;20.10;99.90
11599;DHT22;5855;48.840;9.188;2023-09-18T09:27:58;20.00;99.90
11599;DHT22;5855;48.840;9.188;2023-09-18T09:30:27;20.00;99.90
11599;DHT22;5855;48.840;9.188;2023-09-18T09:32:56;19.80;99.90
11599;DHT22;5855;48.840;9.188;2023-09-18T09:35:24;19.90;99.90
11599;DHT22;5855;48.840;9.188;2023-09-18T09:37:53;20.00;99.90
11599;DHT22;5855;48.840;9.188;2023-09-18T09:40:23;20.00;99.90
11599;DHT22;5855;48.840;9.188;2023-09-18T09:42:51;19.80;99.90
11599;DHT22;5855;48.840;9.188;2023-09-18T09:45:20;19.80;99.90
11599;DHT22;5855;48.840;9.188;2023-09-18T09:47:47;19.90;99.90
11599;DHT22;5855;48.840;9.188;2023-09-18T09:50:15;19.90;99.90
11599;DHT22;5855;48.840;9.188;2023-09-18T09:52:46;19.90;99.90
11599;DHT22;5855;48.840;9.188;2023-09-18T09:55:18;19.80;99.90
11599;DHT22;5855;48.840;9.188;2023-09-18T09:57:52;20.00;99.90
11599;DHT22;5855;48.840;9.188;2023-09-18T10:00:20;20.00;99.90
11599;DHT22;5855;48.840;9.188;2023-09-18T10:02:57;20.10;99.90
11599;DHT22;5855;48.840;9.188;2023-09-18T10:05:27;20.30;99.90
11599;DHT22;5855;48.840;9.188;2023-09-18T10:07:57;20.40;99.90
11599;DHT22;5855;48.840;9.188;2023-09-18T10:10:29;20.40;99.90
11599;DHT22;5855;48.840;9.188;2023-09-18T10:13:01;20.40;99.90
11599;DHT22;5855;48.840;9.188;2023-09-18T10:15:32;20.50;99.90
11599;DHT22;5855;48.840;9.188;2023-09-18T10:18:10;20.30;99.90
11599;DHT22;5855;48.840;9.188;2023-09-18T10:20:40;20.20;99.90
11599;DHT22;5855;48.840;9.188;2023-09-18T10:23:23;19.90;99.90
11599;DHT22;5855;48.840;9.188;2023-09-18T10:25:55;19.80;99.90
11599;DHT22;5855;48.840;9.188;2023-09-18T10:28:30;19.90;99.90
11599;DHT22;5855;48.840;9.188;2023-09-18T10:30:59;19.90;99.90
11599;DHT22;5855;48.840;9.188;2023-09-18T10:33:29;19.80;99.90
11599;DHT22;5855;48.840;9.188;2023-09-18T10:35:57;19.80;99.90
11599;DHT22;5855;48.840;9.188;2023-09-18T10:38:28;19.70;99.90
11599;DHT22;5855;48.840;9.188;2023-09-18T10:40:56;19.70;99.90
11599;DHT22;5855;48.840;9.188;2023-09-18T10:43:24;19.70;99.90
11599;DHT22;5855;48.840;9.188;2023-09-18T10:45:53;19.70;99.90
11599;DHT22;5855;48.840;9.188;2023-09-18T10:48:20;19.70;99.90
11599;DHT22;5855;48.840;9.188;2023-09-18T10:50:49;19.70;99.90
11599;DHT22;5855;48.840;9.188;2023-09-18T10:53:18;19.70;99.90
11599;DHT22;5855;48.840;9.188;2023-09-18T10:55:45;19.70;99.90
11599;DHT22;5855;48.840;9.188;2023-09-18T10:58:23;19.90;99.90
11599;DHT22;5855;48.840;9.188;2023-09-18T11:00:53;19.90;99.90
11599;DHT22;5855;48.840;9.188;2023-09-18T11:03:22;19.70;99.90
11599;DHT22;5855;48.840;9.188;2023-09-18T11:06:03;19.70;99.90
11599;DHT22;5855;48.840;9.188;2023-09-18T11:08:32;19.80;99.90
11599;DHT22;5855;48.840;9.188;2023-09-18T11:11:05;19.80;99.90
11599;DHT22;5855;48.840;9.188;2023-09-18T11:13:41;19.70;99.90
11599;DHT22;5855;48.840;9.188;2023-09-18T11:16:18;19.70;99.90
11599;DHT22;5855;48.840;9.188;2023-09-18T11:18:47;19.70;99.90
11599;DHT22;5855;48.840;9.188;2023-09-18T11:21:15;19.70;99.90
11599;DHT22;5855;48.840;9.188;2023-09-18T11:23:44;19.90;99.90
11599;DHT22;5855;48.840;9.188;2023-09-18T11:26:11;19.90;99.90
11599;DHT22;5855;48.840;9.188;2023-09-18T11:28:42;19.90;99.90
11599;DHT22;5855;48.840;9.188;2023-09-18T11:31:09;19.80;99.90
11599;DHT22;5855;48.840;9.188;2023-09-18T11:33:39;19.80;99.90
11599;DHT22;5855;48.840;9.188;2023-09-18T11:36:08;19.80;99.90
11599;DHT22;5855;48.840;9.188;2023-09-18T11:38:54;19.80;99.90
11599;DHT22;5855;48.840;9.188;2023-09-18T11:41:23;19.90;99.90
11599;DHT22;5855;48.840;9.188;2023-09-18T11:43:51;20.00;99.90
11599;DHT22;5855;48.840;9.188;2023-09-18T11:46:19;20.00;99.90
11599;DHT22;5855;48.840;9.188;2023-09-18T11:48:49;20.10;99.90
11599;DHT22;5855;48.840;9.188;2023-09-18T11:51:23;20.10;99.90
11599;DHT22;5855;48.840;9.188;2023-09-18T11:53:54;20.10;99.90
11599;DHT22;5855;48.840;9.188;2023-09-18T11:56:22;20.10;99.90
11599;DHT22;5855;48.840;9.188;2023-09-18T11:58:50;20.30;99.90
11599;DHT22;5855;48.840;9.188;2023-09-18T12:01:20;20.30;99.90
11599;DHT22;5855;48.840;9.188;2023-09-18T12:03:54;20.40;99.90
11599;DHT22;5855;48.840;9.188;2023-09-18T12:06:21;20.50;99.90
11599;DHT22;5855;48.840;9.188;2023-09-18T12:08:49;20.50;99.90
11599;DHT22;5855;48.840;9.188;2023-09-18T12:11:18;20.40;99.90
11599;DHT22;5855;48.840;9.188;2023-09-18T12:13:45;20.40;99.90
11599;DHT22;5855;48.840;9.188;2023-09-18T12:16:12;20.50;99.90
11599;DHT22;5855;48.840;9.188;2023-09-18T12:18:45;20.50;99.90
11599;DHT22;5855;48.840;9.188;2023-09-18T12:21:15;20.40;99.90
11599;DHT22;5855;48.840;9.188;2023-09-18T12:23:44;20.40;99.90
11599;DHT22;5855;48.840;9.188;2023-09-18T12:26:12;20.30;99.90
11599;DHT22;5855;48.840;9.188;2023-09-18T12:28:40;20.10;99.90
11599;DHT22;5855;48.840;9.188;2023-09-18T12:31:10;20.30;99.90
11599;DHT22;5855;48.840;9.188;2023-09-18T12:33:38;20.40;99.90
11599;DHT22;5855;48.840;9.188;2023-09-18T12:36:06;20.40;99.90
11599;DHT22;5855;48.840;9.188;2023-09-18T12:38:35;20.60;99.90
11599;DHT22;5855;48.840;9.188;2023-09-18T12:41:03;20.70;99.90
11599;DHT22;5855;48.840;9.188;2023-09-18T12:43:34;21.00;99.90
11599;DHT22;5855;48.840;9.188;2023-09-18T12:46:02;21.20;99.90
11599;DHT22;5855;48.840;9.188;2023-09-18T12:48:30;21.20;99.90
11599;DHT22;5855;48.840;9.188;2023-09-18T12:51:02;21.60;99.90
11599;DHT22;5855;48.840;9.188;2023-09-18T12:53:30;22.00;99.90
11599;DHT22;5855;48.840;9.188;2023-09-18T12:56:06;22.10;99.90
11599;DHT22;5855;48.840;9.188;2023-09-18T12:58:33;22.20;99.90
11599;DHT22;5855;48.840;9.188;2023-09-18T13:01:05;22.60;99.90
11599;DHT22;5855;48.840;9.188;2023-09-18T13:03:34;22.80;99.90
11599;DHT22;5855;48.840;9.188;2023-09-18T13:06:09;23.10;99.90
11599;DHT22;5855;48.840;9.188;2023-09-18T13:08:37;23.60;99.90
11599;DHT22;5855;48.840;9.188;2023-09-18T13:11:05;23.60;99.90
11599;DHT22;5855;48.840;9.188;2023-09-18T13:13:33;23.30;99.90
11599;DHT22;5855;48.840;9.188;2023-09-18T13:16:00;23.50;99.90
11599;DHT22;5855;48.840;9.188;2023-09-18T13:18:31;23.60;99.90
11599;DHT22;5855;48.840;9.188;2023-09-18T13:20:58;23.80;99.90
11599;DHT22;5855;48.840;9.188;2023-09-18T13:23:28;24.20;99.90
11599;DHT22;5855;48.840;9.188;2023-09-18T13:25:59;24.60;99.90
11599;DHT22;5855;48.840;9.188;2023-09-18T13:28:28;24.20;99.90
11599;DHT22;5855;48.840;9.188;2023-09-18T13:30:56;24.10;99.90
11599;DHT22;5855;48.840;9.188;2023-09-18T13:33:24;24.10;99.90
11599;DHT22;5855;48.840;9.188;2023-09-18T13:35:51;24.00;99.90
11599;DHT22;5855;48.840;9.188;2023-09-18T13:38:19;24.10;99.90
11599;DHT22;5855;48.840;9.188;2023-09-18T13:40:47;24.50;99.90
11599;DHT22;5855;48.840;9.188;2023-09-18T13:43:14;25.20;99.90
11599;DHT22;5855;48.840;9.188;2023-09-18T13:45:43;26.70;99.90
11599;DHT22;5855;48.840;9.188;2023-09-18T13:48:09;27.90;99.90
11599;DHT22;5855;48.840;9.188;2023-09-18T13:50:37;28.40;99.90
11599;DHT22;5855;48.840;9.188;2023-09-18T13:53:04;28.10;99.90
11599;DHT22;5855;48.840;9.188;2023-09-18T13:55:34;27.40;99.90
11599;DHT22;5855;48.840;9.188;2023-09-18T13:58:02;27.00;99.90
11599;DHT22;5855;48.840;9.188;2023-09-18T14:00:29;27.10;99.90
11599;DHT22;5855;48.840;9.188;2023-09-18T14:02:58;27.20;99.90
11599;DHT22;5855;48.840;9.188;2023-09-18T14:05:25;27.10;99.90
11599;DHT22;5855;48.840;9.188;2023-09-18T14:07:54;26.80;99.90
11599;DHT22;5855;48.840;9.188;2023-09-18T14:10:25;26.50;99.90
11599;DHT22;5855;48.840;9.188;2023-09-18T14:12:52;26.30;99.90
11599;DHT22;5855;48.840;9.188;2023-09-18T14:15:19;25.60;99.90
11599;DHT22;5855;48.840;9.188;2023-09-18T14:17:46;25.50;99.90
11599;DHT22;5855;48.840;9.188;2023-09-18T14:20:15;25.90;99.90
11599;DHT22;5855;48.840;9.188;2023-09-18T14:22:44;25.80;99.90
11599;DHT22;5855;48.840;9.188;2023-09-18T14:25:11;25.50;99.90
11599;DHT22;5855;48.840;9.188;2023-09-18T14:27:39;25.60;99.90
11599;DHT22;5855;48.840;9.188;2023-09-18T14:30:07;25.50;99.90
11599;DHT22;5855;48.840;9.188;2023-09-18T14:32:35;25.60;99.90
11599;DHT22;5855;48.840;9.188;2023-09-18T14:35:02;25.60;99.90
11599;DHT22;5855;48.840;9.188;2023-09-18T14:37:32;25.60;99.90
11599;DHT22;5855;48.840;9.188;2023-09-18T14:39:59;25.30;99.90
11599;DHT22;5855;48.840;9.188;2023-09-18T14:42:25;25.30;99.90
11599;DHT22;5855;48.840;9.188;2023-09-18T14:44:52;25.90;99.90
11599;DHT22;5855;48.840;9.188;2023-09-18T14:47:19;26.20;99.90
11599;DHT22;5855;48.840;9.188;2023-09-18T14:49:46;26.60;99.90
11599;DHT22;5855;48.840;9.188;2023-09-18T14:52:14;27.30;99.90
11599;DHT22;5855;48.840;9.188;2023-09-18T14:54:43;28.00;99.90
11599;DHT22;5855;48.840;9.188;2023-09-18T14:57:10;28.80;99.90
11599;DHT22;5855;48.840;9.188;2023-09-18T14:59:36;29.20;99.90
11599;DHT22;5855;48.840;9.188;2023-09-18T15:02:04;30.20;98.70
11599;DHT22;5855;48.840;9.188;2023-09-18T15:04:32;31.50;96.40
11599;DHT22;5855;48.840;9.188;2023-09-18T15:06:59;31.90;93.80
11599;DHT22;5855;48.840;9.188;2023-09-18T15:09:26;31.10;94.20
11599;DHT22;5855;48.840;9.188;2023-09-18T15:11:54;31.60;93.00
11599;DHT22;5855;48.840;9.188;2023-09-18T15:14:21;31.50;92.30
11599;DHT22;5855;48.840;9.188;2023-09-18T15:16:48;30.80;92.60
11599;DHT22;5855;48.840;9.188;2023-09-18T15:19:15;30.30;93.40
11599;DHT22;5855;48.840;9.188;2023-09-18T15:21:42;30.10;93.20
11599;DHT22;5855;48.840;9.188;2023-09-18T15:24:09;29.00;94.70
11599;DHT22;5855;48.840;9.188;2023-09-18T15:26:36;28.70;95.90
11599;DHT22;5855;48.840;9.188;2023-09-18T15:29:04;29.50;94.80
11599;DHT22;5855;48.840;9.188;2023-09-18T15:31:33;29.00;95.00
11599;DHT22;5855;48.840;9.188;2023-09-18T15:34:00;28.00;96.70
11599;DHT22;5855;48.840;9.188;2023-09-18T15:36:27;27.60;97.40
11599;DHT22;5855;48.840;9.188;2023-09-18T15:38:54;28.10;96.90
11599;DHT22;5855;48.840;9.188;2023-09-18T15:41:22;29.10;95.80
11599;DHT22;5855;48.840;9.188;2023-09-18T15:43:48;29.60;94.50
11599;DHT22;5855;48.840;9.188;2023-09-18T15:46:16;30.00;94.40
11599;DHT22;5855;48.840;9.188;2023-09-18T15:48:44;30.30;93.60
11599;DHT22;5855;48.840;9.188;2023-09-18T15:51:11;30.40;92.50